sensor_id;sensor_type;location;lat;lon;timestamp;temperature;humidity
10046;DHT22;5063;50.878;4.742;2023-03-01T00:02:05;0.10;99.90
10046;DHT22;5063;50.878;4.742;2023-03-01T00:04:32;0.00;99.90
10046;DHT22;5063;50.878;4.742;2023-03-01T00:06:58;0.20;99.90
10046;DHT22;5063;50.878;4.742;2023-03-01T00:09:23;0.00;99.90
10046;DHT22;5063;50.878;4.742;2023-03-01T00:11:49;0.00;99.90
10046;DHT22;5063;50.878;4.742;2023-03-01T00:14:15;-0.10;99.90
10046;DHT22;5063;50.878;4.742;2023-03-01T00:16:45;-0.10;99.90
10046;DHT22;5063;50.878;4.742;2023-03-01T00:19:14;-0.10;99.90
10046;DHT22;5063;50.878;4.742;2023-03-01T00:21:40;-0.10;99.90
10046;DHT22;5063;50.878;4.742;2023-03-01T00:24:06;-0.10;99.90
10046;DHT22;5063;50.878;4.742;2023-03-01T00:26:32;-0.10;99.90
10046;DHT22;5063;50.878;4.742;2023-03-01T00:28:59;-0.20;99.90
10046;DHT22;5063;50.878;4.742;2023-03-01T00:31:30;-0.30;99.90
10046;DHT22;5063;50.878;4.742;2023-03-01T00:33:58;-0.50;99.90
10046;DHT22;5063;50.878;4.742;2023-03-01T00:36:27;-0.30;99.90
10046;DHT22;5063;50.878;4.742;2023-03-01T00:38:53;-0.50;99.90
10046;DHT22;5063;50.878;4.742;2023-03-01T00:41:20;-0.60;99.90
10046;DHT22;5063;50.878;4.742;2023-03-01T00:43:48;-0.70;99.90
10046;DHT22;5063;50.878;4.742;2023-03-01T00:46:17;-0.70;99.90
10046;DHT22;5063;50.878;4.742;2023-03-01T00:48:44;-0.50;99.90
10046;DHT22;5063;50.878;4.742;2023-03-01T00:51:15;-0.80;99.90
10046;DHT22;5063;50.878;4.742;2023-03-01T00:53:42;-0.70;99.90
10046;DHT22;5063;50.878;4.742;2023-03-01T00:56:09;-1.00;99.90
10046;DHT22;5063;50.878;4.742;2023-03-01T00:58:35;-1.00;99.90
10046;DHT22;5063;50.878;4.742;2023-03-01T01:01:08;-1.00;99.90
10046;DHT22;5063;50.878;4.742;2023-03-01T01:03:44;-0.90;99.90
10046;DHT22;5063;50.878;4.742;2023-03-01T01:06:18;-1.10;99.90
10046;DHT22;5063;50.878;4.742;2023-03-01T01:08:43;-1.20;99.90
10046;DHT22;5063;50.878;4.742;2023-03-01T01:11:10;-1.30;99.90
10046;DHT22;5063;50.878;4.742;2023-03-01T01:13:37;-1.40;99.90
10046;DHT22;5063;50.878;4.742;2023-03-01T01:16:04;-1.40;99.90
10046;DHT22;5063;50.878;4.742;2023-03-01T01:18:30;-1.30;99.90
10046;DHT22;5063;50.878;4.742;2023-03-01T01:20:55;-1.30;99.90
10046;DHT22;5063;50.878;4.742;2023-03-01T01:23:21;-1.20;99.90
10046;DHT22;5063;50.878;4.742;2023-03-01T01:25:47;-1.00;99.90
10046;DHT22;5063;50.878;4.742;2023-03-01T01:28:13;-1.20;99.90
10046;DHT22;5063;50.878;4.742;2023-03-01T01:30:38;-1.00;99.90
10046;DHT22;5063;50.878;4.742;2023-03-01T01:33:04;-1.00;99.90
10046;DHT22;5063;50.878;4.742;2023-03-01T01:35:30;-0.80;99.90
10046;DHT22;5063;50.878;4.742;2023-03-01T01:37:55;-0.60;99.90
10046;DHT22;5063;50.878;4.742;2023-03-01T01:40:21;-0.90;99.90
10046;DHT22;5063;50.878;4.742;2023-03-01T01:42:47;-0.80;99.90
10046;DHT22;5063;50.878;4.742;2023-03-01T01:45:35;-0.90;99.90
10046;DHT22;5063;50.878;4.742;2023-03-01T01:48:06;-0.80;99.90
10046;DHT22;5063;50.878;4.742;2023-03-01T01:50:35;-1.00;99.90
10046;DHT22;5063;50.878;4.742;2023-03-01T01:53:10;-0.90;99.90
10046;DHT22;5063;50.878;4.742;2023-03-01T01:55:45;-0.70;99.90
10046;DHT22;5063;50.878;4.742;2023-03-01T01:58:16;-0.50;99.90
10046;DHT22;5063;50.878;4.742;2023-03-01T02:00:43;-0.60;99.90
10046;DHT22;5063;50.878;4.742;2023-03-01T02:03:20;-0.60;99.90
10046;DHT22;5063;50.878;4.742;2023-03-01T02:06:00;-0.60;99.90
10046;DHT22;5063;50.878;4.742;2023-03-01T02:08:31;-0.60;99.90
10046;DHT22;5063;50.878;4.742;2023-03-01T02:10:58;-0.70;99.90
10046;DHT22;5063;50.878;4.742;2023-03-01T02:13:31;-0.70;99.90
10046;DHT22;5063;50.878;4.742;2023-03-01T02:15:58;-0.60;99.90
10046;DHT22;5063;50.878;4.742;2023-03-01T02:18:24;-0.70;99.90
10046;DHT22;5063;50.878;4.742;2023-03-01T02:20:54;-0.90;99.90
10046;DHT22;5063;50.878;4.742;2023-03-01T02:23:25;-0.90;99.90
10046;DHT22;5063;50.878;4.742;2023-03-01T02:28:45;-1.00;99.90
10046;DHT22;5063;50.878;4.742;2023-03-01T02:31:16;-1.00;99.90
10046;DHT22;5063;50.878;4.742;2023-03-01T02:34:02;-1.00;99.90
10046;DHT22;5063;50.878;4.742;2023-03-01T02:36:49;-0.80;99.90
10046;DHT22;5063;50.878;4.742;2023-03-01T02:39:31;-1.10;99.90
10046;DHT22;5063;50.878;4.742;2023-03-01T02:41:58;-1.20;99.90
10046;DHT22;5063;50.878;4.742;2023-03-01T02:44:25;-1.20;99.90
10046;DHT22;5063;50.878;4.742;2023-03-01T02:46:53;-1.40;99.90
10046;DHT22;5063;50.878;4.742;2023-03-01T02:49:35;-1.30;99.90
10046;DHT22;5063;50.878;4.742;2023-03-01T02:54:57;-1.60;99.90
10046;DHT22;5063;50.878;4.742;2023-03-01T02:57:25;-1.80;99.90
10046;DHT22;5063;50.878;4.742;2023-03-01T02:59:57;-1.80;99.90
10046;DHT22;5063;50.878;4.742;2023-03-01T03:02:27;-1.80;99.90
10046;DHT22;5063;50.878;4.742;2023-03-01T03:05:11;-2.00;99.90
10046;DHT22;5063;50.878;4.742;2023-03-01T03:07:39;-2.10;99.90
10046;DHT22;5063;50.878;4.742;2023-03-01T03:10:08;-2.00;99.90
10046;DHT22;5063;50.878;4.742;2023-03-01T03:12:37;-2.20;99.90
10046;DHT22;5063;50.878;4.742;2023-03-01T03:15:04;-2.10;99.90
10046;DHT22;5063;50.878;4.742;2023-03-01T03:17:37;-2.20;99.90
10046;DHT22;5063;50.878;4.742;2023-03-01T03:20:05;-2.20;99.90
10046;DHT22;5063;50.878;4.742;2023-03-01T03:22:32;-2.00;99.90
10046;DHT22;5063;50.878;4.742;2023-03-01T03:24:59;-2.20;99.90
10046;DHT22;5063;50.878;4.742;2023-03-01T03:27:25;-2.30;99.90
10046;DHT22;5063;50.878;4.742;2023-03-01T03:29:51;-2.10;99.90
10046;DHT22;5063;50.878;4.742;2023-03-01T03:32:16;-2.20;99.90
10046;DHT22;5063;50.878;4.742;2023-03-01T03:34:42;-2.20;99.90
10046;DHT22;5063;50.878;4.742;2023-03-01T03:37:08;-2.50;99.90
10046;DHT22;5063;50.878;4.742;2023-03-01T03:39:54;-2.00;99.90
10046;DHT22;5063;50.878;4.742;2023-03-01T03:42:21;-2.60;99.90
10046;DHT22;5063;50.878;4.742;2023-03-01T03:44:48;-2.10;99.90
10046;DHT22;5063;50.878;4.742;2023-03-01T03:47:14;-1.90;99.90
10046;DHT22;5063;50.878;4.742;2023-03-01T03:49:39;-2.20;99.90
10046;DHT22;5063;50.878;4.742;2023-03-01T03:52:05;-2.00;99.90
10046;DHT22;5063;50.878;4.742;2023-03-01T03:54:40;-2.00;99.90
10046;DHT22;5063;50.878;4.742;2023-03-01T03:57:06;-2.10;99.90
10046;DHT22;5063;50.878;4.742;2023-03-01T03:59:32;-1.80;99.90
10046;DHT22;5063;50.878;4.742;2023-03-01T04:01:58;-1.90;99.90
10046;DHT22;5063;50.878;4.742;2023-03-01T04:04:24;-1.80;99.90
10046;DHT22;5063;50.878;4.742;2023-03-01T04:06:50;-1.60;99.90
10046;DHT22;5063;50.878;4.742;2023-03-01T04:09:16;-1.70;99.90
10046;DHT22;5063;50.878;4.742;2023-03-01T04:11:42;-1.60;99.90
10046;DHT22;5063;50.878;4.742;2023-03-01T04:14:07;-1.40;99.90
10046;DHT22;5063;50.878;4.742;2023-03-01T04:16:33;-1.20;99.90
10046;DHT22;5063;50.878;4.742;2023-03-01T04:18:59;-1.50;99.90
10046;DHT22;5063;50.878;4.742;2023-03-01T04:21:26;-1.20;99.90
10046;DHT22;5063;50.878;4.742;2023-03-01T04:23:51;-1.30;99.90
10046;DHT22;5063;50.878;4.742;2023-03-01T04:26:19;-1.20;99.90
10046;DHT22;5063;50.878;4.742;2023-03-01T04:28:45;-1.00;99.90
10046;DHT22;5063;50.878;4.742;2023-03-01T04:31:15;-1.20;99.90
10046;DHT22;5063;50.878;4.742;2023-03-01T04:33:47;-1.40;99.90
10046;DHT22;5063;50.878;4.742;2023-03-01T04:36:15;-1.30;99.90
10046;DHT22;5063;50.878;4.742;2023-03-01T04:38:42;-1.30;99.90
10046;DHT22;5063;50.878;4.742;2023-03-01T04:41:10;-1.10;99.90
10046;DHT22;5063;50.878;4.742;2023-03-01T04:43:37;-1.30;99.90
10046;DHT22;5063;50.878;4.742;2023-03-01T04:46:04;-1.40;99.90
10046;DHT22;5063;50.878;4.742;2023-03-01T04:48:31;-1.20;99.90
10046;DHT22;5063;50.878;4.742;2023-03-01T04:51:00;-1.80;99.90
10046;DHT22;5063;50.878;4.742;2023-03-01T04:53:27;-1.50;99.90
10046;DHT22;5063;50.878;4.742;2023-03-01T04:55:54;-1.60;99.90
10046;DHT22;5063;50.878;4.742;2023-03-01T04:58:22;-1.40;99.90
10046;DHT22;5063;50.878;4.742;2023-03-01T05:00:48;-1.60;99.90
10046;DHT22;5063;50.878;4.742;2023-03-01T05:03:14;-1.60;99.90
10046;DHT22;5063;50.878;4.742;2023-03-01T05:05:45;-2.00;99.90
10046;DHT22;5063;50.878;4.742;2023-03-01T05:08:11;-1.60;99.90
10046;DHT22;5063;50.878;4.742;2023-03-01T05:10:50;-1.50;99.90
10046;DHT22;5063;50.878;4.742;2023-03-01T05:13:17;-1.50;99.90
10046;DHT22;5063;50.878;4.742;2023-03-01T05:15:55;-1.50;99.90
10046;DHT22;5063;50.878;4.742;2023-03-01T05:18:21;-1.50;99.90
10046;DHT22;5063;50.878;4.742;2023-03-01T05:20:52;-1.70;99.90
10046;DHT22;5063;50.878;4.742;2023-03-01T05:23:18;-1.70;99.90
10046;DHT22;5063;50.878;4.742;2023-03-01T05:25:44;-1.50;99.90
10046;DHT22;5063;50.878;4.742;2023-03-01T05:28:13;-1.80;99.90
10046;DHT22;5063;50.878;4.742;2023-03-01T05:30:39;-1.80;99.90
10046;DHT22;5063;50.878;4.742;2023-03-01T05:33:06;-1.80;99.90
10046;DHT22;5063;50.878;4.742;2023-03-01T05:35:43;-2.00;99.90
10046;DHT22;5063;50.878;4.742;2023-03-01T05:38:10;-2.00;99.90
10046;DHT22;5063;50.878;4.742;2023-03-01T05:40:43;-2.30;99.90
10046;DHT22;5063;50.878;4.742;2023-03-01T05:43:09;-2.20;99.90
10046;DHT22;5063;50.878;4.742;2023-03-01T05:45:37;-2.00;99.90
10046;DHT22;5063;50.878;4.742;2023-03-01T05:48:04;-2.10;99.90
10046;DHT22;5063;50.878;4.742;2023-03-01T05:50:34;-2.10;99.90
10046;DHT22;5063;50.878;4.742;2023-03-01T05:55:34;-2.10;99.90
10046;DHT22;5063;50.878;4.742;2023-03-01T05:58:05;-2.10;99.90
10046;DHT22;5063;50.878;4.742;2023-03-01T06:00:32;-2.10;99.90
10046;DHT22;5063;50.878;4.742;2023-03-01T06:03:00;-2.00;99.90
10046;DHT22;5063;50.878;4.742;2023-03-01T06:05:27;-1.90;99.90
10046;DHT22;5063;50.878;4.742;2023-03-01T06:07:53;-2.10;99.90
10046;DHT22;5063;50.878;4.742;2023-03-01T06:10:20;-1.90;99.90
10046;DHT22;5063;50.878;4.742;2023-03-01T06:12:47;-1.70;99.90
10046;DHT22;5063;50.878;4.742;2023-03-01T06:15:14;-1.90;99.90
10046;DHT22;5063;50.878;4.742;2023-03-01T06:17:42;-2.00;99.90
10046;DHT22;5063;50.878;4.742;2023-03-01T06:20:15;-1.80;99.90
10046;DHT22;5063;50.878;4.742;2023-03-01T06:22:42;-1.70;99.90
10046;DHT22;5063;50.878;4.742;2023-03-01T06:25:09;-1.80;99.90
10046;DHT22;5063;50.878;4.742;2023-03-01T06:27:35;-2.30;99.90
10046;DHT22;5063;50.878;4.742;2023-03-01T06:30:02;-1.90;99.90
10046;DHT22;5063;50.878;4.742;2023-03-01T06:32:28;-2.00;99.90
10046;DHT22;5063;50.878;4.742;2023-03-01T06:34:54;-1.90;99.90
10046;DHT22;5063;50.878;4.742;2023-03-01T06:37:20;-2.00;99.90
10046;DHT22;5063;50.878;4.742;2023-03-01T06:39:45;-1.90;99.90
10046;DHT22;5063;50.878;4.742;2023-03-01T06:42:11;-1.70;99.90
10046;DHT22;5063;50.878;4.742;2023-03-01T06:44:37;-1.80;99.90
10046;DHT22;5063;50.878;4.742;2023-03-01T06:47:03;-1.70;99.90
10046;DHT22;5063;50.878;4.742;2023-03-01T06:49:29;-1.70;99.90
10046;DHT22;5063;50.878;4.742;2023-03-01T06:51:56;-1.70;99.90
10046;DHT22;5063;50.878;4.742;2023-03-01T06:54:22;-1.70;99.90
10046;DHT22;5063;50.878;4.742;2023-03-01T06:56:49;-1.60;99.90
10046;DHT22;5063;50.878;4.742;2023-03-01T06:59:15;-1.60;99.90
10046;DHT22;5063;50.878;4.742;2023-03-01T07:01:41;-1.50;99.90
10046;DHT22;5063;50.878;4.742;2023-03-01T07:04:07;-1.50;99.90
10046;DHT22;5063;50.878;4.742;2023-03-01T07:06:32;-1.50;99.90
10046;DHT22;5063;50.878;4.742;2023-03-01T07:08:58;-1.30;99.90
10046;DHT22;5063;50.878;4.742;2023-03-01T07:11:24;-1.40;99.90
10046;DHT22;5063;50.878;4.742;2023-03-01T07:13:50;-1.20;99.90
10046;DHT22;5063;50.878;4.742;2023-03-01T07:16:16;-0.90;99.90
10046;DHT22;5063;50.878;4.742;2023-03-01T07:18:41;-0.40;99.90
10046;DHT22;5063;50.878;4.742;2023-03-01T07:21:08;0.50;99.90
10046;DHT22;5063;50.878;4.742;2023-03-01T07:23:35;1.60;99.90
10046;DHT22;5063;50.878;4.742;2023-03-01T07:26:01;2.90;99.90
10046;DHT22;5063;50.878;4.742;2023-03-01T07:28:27;3.90;99.90
10046;DHT22;5063;50.878;4.742;2023-03-01T07:30:53;4.80;99.90
10046;DHT22;5063;50.878;4.742;2023-03-01T07:33:20;5.50;99.90
10046;DHT22;5063;50.878;4.742;2023-03-01T07:35:45;6.20;99.90
10046;DHT22;5063;50.878;4.742;2023-03-01T07:38:11;6.60;99.90
10046;DHT22;5063;50.878;4.742;2023-03-01T07:40:37;7.10;99.90
10046;DHT22;5063;50.878;4.742;2023-03-01T07:43:03;7.40;99.90
10046;DHT22;5063;50.878;4.742;2023-03-01T07:45:29;7.40;99.90
10046;DHT22;5063;50.878;4.742;2023-03-01T07:47:55;7.10;99.90
10046;DHT22;5063;50.878;4.742;2023-03-01T07:50:22;6.70;99.90
10046;DHT22;5063;50.878;4.742;2023-03-01T07:52:49;6.30;99.90
10046;DHT22;5063;50.878;4.742;2023-03-01T07:55:16;6.00;99.90
10046;DHT22;5063;50.878;4.742;2023-03-01T07:57:42;6.10;99.90
10046;DHT22;5063;50.878;4.742;2023-03-01T08:00:10;5.70;99.90
10046;DHT22;5063;50.878;4.742;2023-03-01T08:02:36;5.90;99.90
10046;DHT22;5063;50.878;4.742;2023-03-01T08:05:03;5.90;99.90
10046;DHT22;5063;50.878;4.742;2023-03-01T08:07:29;6.10;99.90
10046;DHT22;5063;50.878;4.742;2023-03-01T08:09:54;6.10;99.90
10046;DHT22;5063;50.878;4.742;2023-03-01T08:12:20;5.80;99.90
10046;DHT22;5063;50.878;4.742;2023-03-01T08:14:46;5.20;99.90
10046;DHT22;5063;50.878;4.742;2023-03-01T08:17:14;5.10;99.90
10046;DHT22;5063;50.878;4.742;2023-03-01T08:19:40;4.90;99.90
10046;DHT22;5063;50.878;4.742;2023-03-01T08:22:05;4.60;99.90
10046;DHT22;5063;50.878;4.742;2023-03-01T08:24:31;4.30;99.90
10046;DHT22;5063;50.878;4.742;2023-03-01T08:26:57;4.10;99.90
10046;DHT22;5063;50.878;4.742;2023-03-01T08:29:23;3.90;99.90
10046;DHT22;5063;50.878;4.742;2023-03-01T08:31:50;4.10;99.90
10046;DHT22;5063;50.878;4.742;2023-03-01T08:34:18;4.20;99.90
10046;DHT22;5063;50.878;4.742;2023-03-01T08:36:45;3.70;99.90
10046;DHT22;5063;50.878;4.742;2023-03-01T08:39:15;3.70;99.90
10046;DHT22;5063;50.878;4.742;2023-03-01T08:41:42;3.50;99.90
10046;DHT22;5063;50.878;4.742;2023-03-01T08:44:09;3.50;99.90
10046;DHT22;5063;50.878;4.742;2023-03-01T08:46:38;3.80;99.90
10046;DHT22;5063;50.878;4.742;2023-03-01T08:49:04;3.90;99.90
10046;DHT22;5063;50.878;4.742;2023-03-01T08:51:31;3.80;99.90
10046;DHT22;5063;50.878;4.742;2023-03-01T08:54:03;4.00;99.90
10046;DHT22;5063;50.878;4.742;2023-03-01T08:56:29;4.40;99.90
10046;DHT22;5063;50.878;4.742;2023-03-01T08:58:55;5.30;99.90
10046;DHT22;5063;50.878;4.742;2023-03-01T09:01:20;6.30;99.90
10046;DHT22;5063;50.878;4.742;2023-03-01T09:03:46;7.30;99.90
10046;DHT22;5063;50.878;4.742;2023-03-01T09:06:13;7.50;99.90
10046;DHT22;5063;50.878;4.742;2023-03-01T09:08:41;6.60;99.90
10046;DHT22;5063;50.878;4.742;2023-03-01T09:11:09;5.80;99.90
10046;DHT22;5063;50.878;4.742;2023-03-01T09:13:36;4.70;99.90
10046;DHT22;5063;50.878;4.742;2023-03-01T09:16:03;4.00;99.90
10046;DHT22;5063;50.878;4.742;2023-03-01T09:18:30;3.80;99.90
10046;DHT22;5063;50.878;4.742;2023-03-01T09:21:14;3.50;99.90
10046;DHT22;5063;50.878;4.742;2023-03-01T09:23:43;3.60;99.90
10046;DHT22;5063;50.878;4.742;2023-03-01T09:26:11;3.70;99.90
10046;DHT22;5063;50.878;4.742;2023-03-01T09:28:37;3.80;99.90
10046;DHT22;5063;50.878;4.742;2023-03-01T09:31:04;3.70;99.90
10046;DHT22;5063;50.878;4.742;2023-03-01T09:33:32;3.80;99.90
10046;DHT22;5063;50.878;4.742;2023-03-01T09:36:04;4.00;99.90
10046;DHT22;5063;50.878;4.742;2023-03-01T09:38:30;3.90;99.90
10046;DHT22;5063;50.878;4.742;2023-03-01T09:40:56;4.00;99.90
10046;DHT22;5063;50.878;4.742;2023-03-01T09:46:09;3.70;99.90
10046;DHT22;5063;50.878;4.742;2023-03-01T09:48:55;3.80;99.90
10046;DHT22;5063;50.878;4.742;2023-03-01T09:51:32;3.90;99.90
10046;DHT22;5063;50.878;4.742;2023-03-01T09:53:58;3.80;99.90
10046;DHT22;5063;50.878;4.742;2023-03-01T09:56:40;4.00;99.90
10046;DHT22;5063;50.878;4.742;2023-03-01T09:59:43;4.10;99.90
10046;DHT22;5063;50.878;4.742;2023-03-01T10:02:45;4.20;99.90
10046;DHT22;5063;50.878;4.742;2023-03-01T10:08:34;4.40;99.90
10046;DHT22;5063;50.878;4.742;2023-03-01T10:16:40;4.40;99.90
10046;DHT22;5063;50.878;4.742;2023-03-01T10:19:14;4.60;99.90
10046;DHT22;5063;50.878;4.742;2023-03-01T10:21:45;4.60;99.90
10046;DHT22;5063;50.878;4.742;2023-03-01T10:24:18;4.50;99.90
10046;DHT22;5063;50.878;4.742;2023-03-01T10:26:58;4.60;99.90
10046;DHT22;5063;50.878;4.742;2023-03-01T10:32:47;4.80;99.90
10046;DHT22;5063;50.878;4.742;2023-03-01T10:35:20;4.80;99.90
10046;DHT22;5063;50.878;4.742;2023-03-01T10:38:08;5.10;99.90
10046;DHT22;5063;50.878;4.742;2023-03-01T10:40:35;5.10;99.90
10046;DHT22;5063;50.878;4.742;2023-03-01T10:43:05;5.00;99.90
10046;DHT22;5063;50.878;4.742;2023-03-01T10:45:38;5.10;99.90
10046;DHT22;5063;50.878;4.742;2023-03-01T10:50:49;5.10;99.90
10046;DHT22;5063;50.878;4.742;2023-03-01T10:53:40;5.10;99.90
10046;DHT22;5063;50.878;4.742;2023-03-01T10:56:14;5.30;99.90
10046;DHT22;5063;50.878;4.742;2023-03-01T10:58:57;5.40;99.90
10046;DHT22;5063;50.878;4.742;2023-03-01T11:06:36;5.50;99.90
10046;DHT22;5063;50.878;4.742;2023-03-01T11:09:15;5.50;99.90
10046;DHT22;5063;50.878;4.742;2023-03-01T11:11:41;5.50;99.90
10046;DHT22;5063;50.878;4.742;2023-03-01T11:14:55;5.60;99.90
10046;DHT22;5063;50.878;4.742;2023-03-01T11:17:13;5.60;99.90
10046;DHT22;5063;50.878;4.742;2023-03-01T11:19:40;5.70;99.90
10046;DHT22;5063;50.878;4.742;2023-03-01T11:22:14;5.60;99.90
10046;DHT22;5063;50.878;4.742;2023-03-01T11:24:54;5.70;99.90
10046;DHT22;5063;50.878;4.742;2023-03-01T11:27:31;5.70;99.90
10046;DHT22;5063;50.878;4.742;2023-03-01T11:30:09;5.70;99.90
10046;DHT22;5063;50.878;4.742;2023-03-01T11:33:58;5.90;99.90
10046;DHT22;5063;50.878;4.742;2023-03-01T11:35:57;6.00;99.90
10046;DHT22;5063;50.878;4.742;2023-03-01T11:38:28;6.20;99.90
10046;DHT22;5063;50.878;4.742;2023-03-01T11:41:14;6.10;99.90
10046;DHT22;5063;50.878;4.742;2023-03-01T11:43:59;6.10;99.90
10046;DHT22;5063;50.878;4.742;2023-03-01T12:00:07;6.40;99.90
10046;DHT22;5063;50.878;4.742;2023-03-01T12:05:38;6.60;99.90
10046;DHT22;5063;50.878;4.742;2023-03-01T12:10:45;6.60;99.90
10046;DHT22;5063;50.878;4.742;2023-03-01T12:13:40;6.60;99.90
10046;DHT22;5063;50.878;4.742;2023-03-01T12:19:11;6.70;99.90
10046;DHT22;5063;50.878;4.742;2023-03-01T12:27:29;6.90;99.90
10046;DHT22;5063;50.878;4.742;2023-03-01T12:30:34;6.90;99.90
10046;DHT22;5063;50.878;4.742;2023-03-01T12:39:06;7.00;99.90
10046;DHT22;5063;50.878;4.742;2023-03-01T12:48:04;6.90;99.90
10046;DHT22;5063;50.878;4.742;2023-03-01T12:50:47;7.00;99.90
10046;DHT22;5063;50.878;4.742;2023-03-01T12:53:29;7.10;99.90
10046;DHT22;5063;50.878;4.742;2023-03-01T12:56:09;7.00;99.90
10046;DHT22;5063;50.878;4.742;2023-03-01T12:59:01;7.10;99.90
10046;DHT22;5063;50.878;4.742;2023-03-01T13:01:51;6.80;99.90
10046;DHT22;5063;50.878;4.742;2023-03-01T13:04:33;7.20;99.90
10046;DHT22;5063;50.878;4.742;2023-03-01T13:07:37;7.20;99.90
10046;DHT22;5063;50.878;4.742;2023-03-01T13:13:23;7.60;99.90
10046;DHT22;5063;50.878;4.742;2023-03-01T13:15:49;7.50;99.90
10046;DHT22;5063;50.878;4.742;2023-03-01T13:20:51;7.40;99.90
10046;DHT22;5063;50.878;4.742;2023-03-01T13:26:14;7.40;99.90
10046;DHT22;5063;50.878;4.742;2023-03-01T13:28:53;7.30;99.90
10046;DHT22;5063;50.878;4.742;2023-03-01T13:38:58;7.50;99.90
10046;DHT22;5063;50.878;4.742;2023-03-01T13:46:48;7.60;99.90
10046;DHT22;5063;50.878;4.742;2023-03-01T13:49:18;7.70;99.90
10046;DHT22;5063;50.878;4.742;2023-03-01T13:51:49;7.40;99.90
10046;DHT22;5063;50.878;4.742;2023-03-01T13:54:21;7.70;99.90
10046;DHT22;5063;50.878;4.742;2023-03-01T13:56:50;7.50;99.90
10046;DHT22;5063;50.878;4.742;2023-03-01T13:59:21;7.60;99.90
10046;DHT22;5063;50.878;4.742;2023-03-01T14:01:58;7.80;99.90
10046;DHT22;5063;50.878;4.742;2023-03-01T14:04:32;8.00;99.90
10046;DHT22;5063;50.878;4.742;2023-03-01T14:07:22;7.90;99.90
10046;DHT22;5063;50.878;4.742;2023-03-01T14:09:55;7.80;99.90
10046;DHT22;5063;50.878;4.742;2023-03-01T14:18:02;7.80;99.90
10046;DHT22;5063;50.878;4.742;2023-03-01T14:20:44;7.90;99.90
10046;DHT22;5063;50.878;4.742;2023-03-01T14:23:21;8.10;99.90
10046;DHT22;5063;50.878;4.742;2023-03-01T14:25:56;8.10;99.90
10046;DHT22;5063;50.878;4.742;2023-03-01T14:28:28;8.00;99.90
10046;DHT22;5063;50.878;4.742;2023-03-01T14:31:01;8.10;99.90
10046;DHT22;5063;50.878;4.742;2023-03-01T14:33:30;8.20;99.90
10046;DHT22;5063;50.878;4.742;2023-03-01T14:36:12;8.10;99.90
10046;DHT22;5063;50.878;4.742;2023-03-01T14:38:40;8.20;99.90
10046;DHT22;5063;50.878;4.742;2023-03-01T14:41:15;8.20;99.90
10046;DHT22;5063;50.878;4.742;2023-03-01T14:43:46;8.20;99.90
10046;DHT22;5063;50.878;4.742;2023-03-01T14:46:23;8.10;99.90
10046;DHT22;5063;50.878;4.742;2023-03-01T14:48:56;8.20;99.90
10046;DHT22;5063;50.878;4.742;2023-03-01T14:51:23;8.20;99.90
10046;DHT22;5063;50.878;4.742;2023-03-01T14:53:50;8.10;99.90
10046;DHT22;5063;50.878;4.742;2023-03-01T14:56:17;8.20;99.90
10046;DHT22;5063;50.878;4.742;2023-03-01T14:58:46;8.30;99.90
10046;DHT22;5063;50.878;4.742;2023-03-01T15:01:17;8.30;99.90
10046;DHT22;5063;50.878;4.742;2023-03-01T15:03:45;8.30;99.90
10046;DHT22;5063;50.878;4.742;2023-03-01T15:06:16;8.40;99.90
10046;DHT22;5063;50.878;4.742;2023-03-01T15:08:47;8.50;99.90
10046;DHT22;5063;50.878;4.742;2023-03-01T15:13:40;8.00;99.90
10046;DHT22;5063;50.878;4.742;2023-03-01T15:16:11;8.00;99.90
10046;DHT22;5063;50.878;4.742;2023-03-01T15:18:43;8.00;99.90
10046;DHT22;5063;50.878;4.742;2023-03-01T15:21:19;8.10;99.90
10046;DHT22;5063;50.878;4.742;2023-03-01T15:24:02;8.10;99.90
10046;DHT22;5063;50.878;4.742;2023-03-01T15:26:40;8.10;99.90
10046;DHT22;5063;50.878;4.742;2023-03-01T15:29:17;8.10;99.90
10046;DHT22;5063;50.878;4.742;2023-03-01T15:31:54;8.20;99.90
10046;DHT22;5063;50.878;4.742;2023-03-01T15:34:22;8.20;99.90
10046;DHT22;5063;50.878;4.742;2023-03-01T15:36:50;8.10;99.90
10046;DHT22;5063;50.878;4.742;2023-03-01T15:39:37;8.00;99.90
10046;DHT22;5063;50.878;4.742;2023-03-01T15:42:10;8.00;99.90
10046;DHT22;5063;50.878;4.742;2023-03-01T15:44:39;8.00;99.90
10046;DHT22;5063;50.878;4.742;2023-03-01T15:47:33;8.00;99.90
10046;DHT22;5063;50.878;4.742;2023-03-01T15:50:00;7.90;99.90
10046;DHT22;5063;50.878;4.742;2023-03-01T15:52:35;8.00;99.90
10046;DHT22;5063;50.878;4.742;2023-03-01T15:55:26;8.00;99.90
10046;DHT22;5063;50.878;4.742;2023-03-01T15:58:05;7.90;99.90
10046;DHT22;5063;50.878;4.742;2023-03-01T16:00:32;7.90;99.90
10046;DHT22;5063;50.878;4.742;2023-03-01T16:02:58;8.00;99.90
10046;DHT22;5063;50.878;4.742;2023-03-01T16:05:27;8.00;99.90
10046;DHT22;5063;50.878;4.742;2023-03-01T16:07:53;8.30;99.90
10046;DHT22;5063;50.878;4.742;2023-03-01T16:10:20;8.60;99.90
10046;DHT22;5063;50.878;4.742;2023-03-01T16:12:46;9.50;99.90
10046;DHT22;5063;50.878;4.742;2023-03-01T16:15:22;9.40;99.90
10046;DHT22;5063;50.878;4.742;2023-03-01T16:17:48;8.90;99.90
10046;DHT22;5063;50.878;4.742;2023-03-01T16:20:15;8.40;99.90
10046;DHT22;5063;50.878;4.742;2023-03-01T16:22:42;8.20;99.90
10046;DHT22;5063;50.878;4.742;2023-03-01T16:25:13;8.00;99.90
10046;DHT22;5063;50.878;4.742;2023-03-01T16:27:45;8.00;99.90
10046;DHT22;5063;50.878;4.742;2023-03-01T16:30:13;8.00;99.90
10046;DHT22;5063;50.878;4.742;2023-03-01T16:32:45;7.80;99.90
10046;DHT22;5063;50.878;4.742;2023-03-01T16:35:13;7.70;99.90
10046;DHT22;5063;50.878;4.742;2023-03-01T16:37:39;7.70;99.90
10046;DHT22;5063;50.878;4.742;2023-03-01T16:40:06;7.60;99.90
10046;DHT22;5063;50.878;4.742;2023-03-01T16:42:37;7.60;99.90
10046;DHT22;5063;50.878;4.742;2023-03-01T16:45:03;7.50;99.90
10046;DHT22;5063;50.878;4.742;2023-03-01T16:47:29;7.40;99.90
10046;DHT22;5063;50.878;4.742;2023-03-01T16:49:55;7.30;99.90
10046;DHT22;5063;50.878;4.742;2023-03-01T16:52:22;7.20;99.90
10046;DHT22;5063;50.878;4.742;2023-03-01T16:54:48;7.40;99.90
10046;DHT22;5063;50.878;4.742;2023-03-01T16:57:14;7.00;99.90
10046;DHT22;5063;50.878;4.742;2023-03-01T16:59:40;7.00;99.90
10046;DHT22;5063;50.878;4.742;2023-03-01T17:02:08;7.00;99.90
10046;DHT22;5063;50.878;4.742;2023-03-01T17:04:36;6.90;99.90
10046;DHT22;5063;50.878;4.742;2023-03-01T17:07:02;6.70;99.90
10046;DHT22;5063;50.878;4.742;2023-03-01T17:09:28;6.70;99.90
10046;DHT22;5063;50.878;4.742;2023-03-01T17:11:54;6.10;99.90
10046;DHT22;5063;50.878;4.742;2023-03-01T17:14:20;6.30;99.90
10046;DHT22;5063;50.878;4.742;2023-03-01T17:16:46;6.20;99.90
10046;DHT22;5063;50.878;4.742;2023-03-01T17:19:12;6.10;99.90
10046;DHT22;5063;50.878;4.742;2023-03-01T17:21:44;6.00;99.90
10046;DHT22;5063;50.878;4.742;2023-03-01T17:24:10;5.80;99.90
10046;DHT22;5063;50.878;4.742;2023-03-01T17:26:37;5.90;99.90
10046;DHT22;5063;50.878;4.742;2023-03-01T17:29:03;5.70;99.90
10046;DHT22;5063;50.878;4.742;2023-03-01T17:31:31;5.90;99.90
10046;DHT22;5063;50.878;4.742;2023-03-01T17:33:57;5.60;99.90
10046;DHT22;5063;50.878;4.742;2023-03-01T17:36:23;5.50;99.90
10046;DHT22;5063;50.878;4.742;2023-03-01T17:38:48;5.40;99.90
10046;DHT22;5063;50.878;4.742;2023-03-01T17:41:15;5.50;99.90
10046;DHT22;5063;50.878;4.742;2023-03-01T17:43:44;5.30;99.90
10046;DHT22;5063;50.878;4.742;2023-03-01T17:46:10;5.20;99.90
10046;DHT22;5063;50.878;4.742;2023-03-01T17:48:36;5.10;99.90
10046;DHT22;5063;50.878;4.742;2023-03-01T17:51:10;5.10;99.90
10046;DHT22;5063;50.878;4.742;2023-03-01T17:53:36;5.10;99.90
10046;DHT22;5063;50.878;4.742;2023-03-01T17:56:04;4.90;99.90